ADDS METAR Data INFO
IDs: Format: Raw Decoded Include TAF

Data at: 0837 UTC 21 Oct 2017

KGAO 210815Z AUTO 12005KT 10SM CLR 25/21 A3001 RMK AO2 T02520205
KGAO 210755Z AUTO 12006KT 10SM CLR 25/21 A3001 RMK AO2 T02520205
KGAO 210735Z AUTO 13006KT 10SM CLR 25/20 A3002 RMK AO2 T02520203
KGAO 210715Z AUTO 11005KT 10SM CLR 25/20 A3002 RMK AO2 T02520203
KGAO 210655Z AUTO 11006KT 10SM CLR 25/21 A3002 RMK AO2 T02510205
KGAO 210635Z AUTO 11004KT 10SM SCT025 SCT031 25/22 A3002 RMK AO2 LTG DSNT S T02460220
KGAO 210615Z AUTO 10007KT 10SM BKN025 BKN031 25/22 A3003 RMK AO2 T02450220
KGAO 210555Z AUTO 09007KT 10SM SCT025 25/22 A3003 RMK AO2 T02450220 10252 20245 402870184
KGAO 210535Z AUTO 09005KT 10SM SCT025 25/22 A3003 RMK AO2 T02450220
KGAO 210515Z AUTO 09006KT 10SM CLR 25/22 A3003 RMK AO2 T02450220
KGAO 210455Z AUTO 09005KT 10SM CLR 25/22 A3003 RMK AO2 LTG DSNT S AND SW T02460220
KGAO 210435Z AUTO 10006KT 10SM SCT065 25/22 A3005 RMK AO2 T02460220
KGAO 210415Z AUTO 09004KT 10SM OVC065 25/22 A3006 RMK AO2 T02480221
KGAO 210355Z AUTO 09004KT 10SM OVC065 25/22 A3006 RMK AO2 LTG DSNT SW T02490221
KGAO 210335Z AUTO 10004KT 10SM OVC065 25/22 A3006 RMK AO2 T02470221
KGAO 210315Z AUTO 09005KT 10SM OVC065 25/22 A3006 RMK AO2 T02470220
KGAO 210255Z AUTO 08003KT 10SM OVC065 25/22 A3006 RMK AO2 T02480220
KGAO 210235Z AUTO 08003KT 10SM OVC065 25/22 A3006 RMK AO2 T02480220
KGAO 210215Z AUTO 08005KT 10SM OVC065 25/22 A3006 RMK AO2 T02470220
KGAO 210155Z AUTO 07003KT 10SM SCT022 BKN065 OVC080 25/22 A3005 RMK AO2 LTG DSNT SW T02450220
KGAO 210135Z AUTO 07003KT 10SM SCT017 BKN024 BKN065 25/22 A3005 RMK AO2 LTG DSNT SW T02450220
KGAO 210115Z AUTO 06004KT 10SM BKN019 OVC026 25/22 A3005 RMK AO2 T02460220
KGAO 210055Z AUTO 08005KT 10SM BKN020 OVC026 25/22 A3004 RMK AO2 T02470220
KGAO 210035Z AUTO 00000KT 10SM SCT018 BKN026 BKN036 25/22 A3004 RMK AO2 T02460218
KGAO 210015Z AUTO 09007KT 10SM SCT015 BKN026 BKN035 25/22 A3003 RMK AO2 LTG DSNT SW T02510216
KGAO 202355Z AUTO 07004KT 10SM SCT030 SCT038 25/21 A3003 RMK AO2 T02470212 10287 20247
KGAO 202335Z AUTO 09006G14KT 10SM BKN026 BKN038 25/21 A3003 RMK AO2 T02500214
KGAO 202315Z AUTO 09005G14KT 10SM SCT019 BKN026 BKN065 26/21 A3004 RMK AO2 T02550214
KGAO 202255Z AUTO 08005G14KT 10SM SCT019 SCT029 BKN065 26/21 A3003 RMK AO2 T02570214
KGAO 202235Z AUTO 09007KT 040V110 10SM BKN019 BKN026 BKN033 26/22 A3003 RMK AO2 LTG DSNT SW T02600215
KGAO 202215Z AUTO 09007KT 060V120 10SM SCT022 BKN026 OVC032 26/21 A3004 RMK AO2 LTG DSNT W T02620213
KGAO 202155Z AUTO 08008KT 060V120 10SM BKN023 BKN030 OVC045 27/21 A3003 RMK AO2 LTG DSNT W T02650211
KGAO 202135Z AUTO 09005KT 10SM BKN023 BKN029 BKN045 27/21 A3003 RMK AO2 T02710210
KGAO 202115Z AUTO 09006KT 10SM BKN025 OVC032 27/21 A3004 RMK AO2 LTG DSNT SW AND W T02710205
KGAO 202055Z AUTO 10006KT 10SM BKN027 BKN036 BKN043 27/20 A3003 RMK AO2 T02710202
KGAO 202035Z AUTO 09003KT 10SM OVC025 27/21 A3004 RMK AO2 LTG DSNT SW T02720205
KGAO 202015Z AUTO 08005KT 10SM BKN025 BKN036 28/21 A3004 RMK AO2 LTG DSNT W T02800209
KGAO 201955Z AUTO 09005KT 10SM BKN027 BKN035 28/20 A3004 RMK AO2 T02800203
KGAO 201935Z AUTO 10003KT 10SM SCT029 SCT035 28/20 A3004 RMK AO2 T02770196
KGAO 201915Z AUTO 11007KT 080V140 10SM CLR 28/19 A3005 RMK AO2 LTG DSNT SW T02810188
KGAO 201855Z AUTO 10006KT 10SM SCT028 SCT033 28/19 A3005 RMK AO2 LTG DSNT SW T02840190
KGAO 201835Z AUTO 10008KT 070V150 10SM SCT026 28/20 A3006 RMK AO2 LTG DSNT W T02840201
KGAO 201820Z AUTO 09008KT 10SM SCT024 27/20 A3007 RMK AO2 LTG DSNT W T02720201
KGAO 201755Z AUTO 10009KT 10SM SCT028 28/20 A3009 RMK AO2 T02830204 10285 20210
KGAO 201735Z AUTO 11007KT 090V150 10SM SCT027 28/20 A3010 RMK AO2 LTG DSNT W T02770202
KGAO 201715Z AUTO 07005KT 10SM CLR 27/21 A3011 RMK AO2 T02700211
KGAO 201655Z AUTO 06005KT 10SM CLR 27/21 A3012 RMK AO2 LTG DSNT W T02680211
KGAO 201635Z AUTO 04007KT 10SM CLR 27/21 A3012 RMK AO2 LTG DSNT W T02690211
KGAO 201615Z AUTO 06007KT 10SM CLR 26/21 A3013 RMK AO2 LTG DSNT W T02600210
KGAO 201555Z AUTO 04007KT 10SM CLR 26/21 A3013 RMK AO2 LTG DSNT W T02570205
KGAO 201535Z AUTO 07005KT 10SM CLR 25/21 A3013 RMK AO2 T02520205
KGAO 201515Z AUTO 05006KT 10SM SCT034 SCT046 25/20 A3013 RMK AO2 T02450202
KGAO 201455Z AUTO 05006KT 10SM SCT034 SCT046 24/20 A3013 RMK AO2 T02400200
KGAO 201435Z AUTO 04005KT 10SM SCT039 24/20 A3013 RMK AO2 T02370200
KGAO 201415Z AUTO 05006KT 10SM SCT037 24/20 A3013 RMK AO2 T02350200
KGAO 201355Z AUTO 05005KT 10SM SCT037 23/20 A3013 RMK AO2 T02300200
KGAO 201335Z AUTO 05004KT 10SM CLR 23/20 A3013 RMK AO2 T02250197
KGAO 201315Z AUTO 05004KT 10SM CLR 22/20 A3013 RMK AO2 LTG DSNT SW T02200195
KGAO 201255Z AUTO 06004KT 10SM CLR 22/19 A3013 RMK AO2 LTG DSNT W T02160192
KGAO 201235Z AUTO 05003KT 10SM CLR 22/19 A3013 RMK AO2 LTG DSNT W T02150191
KGAO 201215Z AUTO 05004KT 10SM CLR 21/19 A3013 RMK AO2 T02120190
KGAO 201155Z AUTO 04003KT 10SM CLR 21/19 A3013 RMK AO2 T02110190 10216 20184
KGAO 201135Z AUTO 04003KT 10SM CLR 21/19 A3012 RMK AO2 LTG DSNT SW AND W T02100188
KGAO 201115Z AUTO 04003KT 10SM SCT043 21/19 A3012 RMK AO2 T02060186
KGAO 201055Z AUTO 00000KT 10SM CLR 21/19 A3012 RMK AO2 T02050185
KGAO 201035Z AUTO 00000KT 10SM CLR 21/19 A3011 RMK AO2 T02060185
KGAO 201015Z AUTO 00000KT 10SM CLR 21/19 A3011 RMK AO2 T02100187
KGAO 200955Z AUTO 05003KT 10SM CLR 21/19 A3010 RMK AO2 T02100186
KGAO 200935Z AUTO 00000KT 10SM SCT041 20/18 A3010 RMK AO2 T02030182
KGAO 200915Z AUTO 00000KT 10SM SCT041 21/18 A3010 RMK AO2 LTG DSNT W T02050180
KGAO 200855Z AUTO 00000KT 10SM CLR 21/18 A3010 RMK AO2 T02050176
KGAO 200835Z AUTO 00000KT 10SM CLR 21/18 A3011 RMK AO2 T02050175
KGAO 200815Z AUTO 00000KT 10SM CLR 19/17 A3011 RMK AO2 T01930174
KGAO 200755Z AUTO 00000KT 10SM CLR 19/17 A3011 RMK AO2 T01880173
KGAO 200735Z AUTO 00000KT 10SM CLR 19/17 A3012 RMK AO2 T01900172
KGAO 200715Z AUTO 00000KT 10SM CLR 20/18 A3013 RMK AO2 T01990177
KGAO 200655Z AUTO 00000KT 10SM CLR 21/18 A3013 RMK AO2 T02120180
KGAO 200635Z AUTO 00000KT 10SM CLR 21/18 A3013 RMK AO2 T02140184
KGAO 200615Z AUTO 00000KT 10SM CLR 22/19 A3013 RMK AO2 T02150188
KGAO 200555Z AUTO 00000KT 10SM CLR 22/19 A3014 RMK AO2 T02170189 10240 20216 402800184
KGAO 200535Z AUTO 00000KT 10SM CLR 22/19 A3014 RMK AO2 T02180188
KGAO 200515Z AUTO 00000KT 10SM CLR 22/19 A3015 RMK AO2 T02180190
KGAO 200455Z AUTO 09003KT 10SM CLR 22/19 A3015 RMK AO2 T02200191
KGAO 200435Z AUTO 00000KT 10SM CLR 22/19 A3016 RMK AO2 T02200192
KGAO 200415Z AUTO 00000KT 10SM CLR 22/19 A3016 RMK AO2 T02220192
KGAO 200355Z AUTO 09003KT 10SM CLR 23/19 A3016 RMK AO2 T02250192
KGAO 200335Z AUTO 09004KT 10SM CLR 23/19 A3016 RMK AO2 T02260193
KGAO 200315Z AUTO 09005KT 10SM CLR 23/19 A3015 RMK AO2 T02270194
KGAO 200255Z AUTO 08004KT 10SM CLR 23/20 A3015 RMK AO2 T02300196
KGAO 200235Z AUTO 09003KT 10SM CLR 23/20 A3014 RMK AO2 LTG DSNT W T02300196
KGAO 200215Z AUTO 08003KT 10SM CLR 23/20 A3014 RMK AO2 LTG DSNT SW AND W T02300197
KGAO 200155Z AUTO 08004KT 10SM CLR 23/20 A3014 RMK AO2 T02310197
KGAO 200135Z AUTO 08004KT 10SM CLR 23/20 A3013 RMK AO2 T02320196
KGAO 200115Z AUTO 07004KT 10SM CLR 23/20 A3013 RMK AO2 T02330196
KGAO 200055Z AUTO 08005KT 10SM CLR 24/20 A3013 RMK AO2 LTG DSNT SW T02360195
KGAO 200035Z AUTO 07004KT 10SM CLR 24/20 A3013 RMK AO2 T02370195
KGAO 200015Z AUTO 07005KT 10SM CLR 24/20 A3013 RMK AO2 T02400195
KGAO 192355Z AUTO 07006KT 10SM CLR 24/19 A3012 RMK AO2 T02400194 10280 20240
KGAO 192335Z AUTO 07004KT 10SM SCT045 BKN060 24/19 A3012 RMK AO2 T02440191
KGAO 192315Z AUTO 06006KT 10SM SCT045 25/19 A3012 RMK AO2 T02470193
KGAO 192255Z AUTO 07006KT 10SM SCT023 SCT035 SCT050 25/19 A3012 RMK AO2 T02510194
KGAO 192235Z AUTO 08004G15KT 10SM SCT023 SCT048 25/20 A3011 RMK AO2 T02540195
KGAO 192215Z AUTO 08007G15KT 050V120 10SM SCT025 SCT033 26/20 A3011 RMK AO2 T02570195
KGAO 192155Z AUTO 07009G15KT 040V100 10SM SCT025 BKN033 26/20 A3011 RMK AO2 T02600197
KGAO 192135Z AUTO 07009G15KT 040V100 10SM SCT019 SCT033 27/20 A3011 RMK AO2 T02660202
KGAO 192115Z AUTO 07010G18KT 10SM SCT019 27/21 A3011 RMK AO2 T02650205
KGAO 192055Z AUTO 06008G17KT 10SM SCT024 SCT029 27/21 A3011 RMK AO2 T02680206